Time;durP1;ratioP1;P1;durP2;ratioP2;P2;SDS_P1;SDS_P2;PMS_P1;PMS_P2;Temp;Humidity;BMP_temperature;BMP_pressure;BME280_temperature;BME280_humidity;BME280_pressure;Samples;Min_cycle;Max_cycle;Signal;HPM_P1;HPM_P2
2022/12/15 13:38:54;;;;;;;13.03;5.80;;;3.10;99.90;;;;;;4894970;23;20254;-73
2022/12/15 13:41:26;;;;;;;13.67;5.70;;;3.10;99.90;;;;;;4874525;29;20213;-72
2022/12/15 13:43:54;;;;;;;16.60;5.67;;;3.00;99.90;;;;;;4877403;29;20235;-74
2022/12/15 13:46:24;;;;;;;13.43;6.37;;;2.90;99.90;;;;;;4873829;29;20219;-74
2022/12/15 13:48:55;;;;;;;14.73;5.27;;;3.00;99.90;;;;;;4864263;29;20207;-74
2022/12/15 13:51:30;;;;;;;13.80;5.70;;;2.90;99.90;;;;;;4880621;29;20214;-73
2022/12/15 13:54:03;;;;;;;15.40;5.70;;;2.90;99.90;;;;;;4882238;29;20246;-74
2022/12/15 13:56:45;;;;;;;11.73;5.43;;;2.80;99.90;;;;;;4882509;29;20302;-74
2022/12/15 13:59:26;;;;;;;12.97;5.23;;;3.00;99.90;;;;;;4882349;29;20211;-73
2022/12/15 14:01:54;;;;;;;9.30;4.93;;;3.40;99.90;;;;;;4882381;29;20226;-74
2022/12/15 14:04:21;;;;;;;11.07;5.37;;;3.80;99.90;;;;;;4882077;29;20235;-74
2022/12/15 14:06:51;;;;;;;18.73;6.43;;;4.00;99.90;;;;;;4881947;29;20217;-75
2022/12/15 14:09:25;;;;;;;18.63;8.47;;;4.00;99.90;;;;;;4881980;29;20563;-74
2022/12/15 14:11:52;;;;;;;24.23;8.17;;;4.10;99.90;;;;;;4863648;29;20216;-73
2022/12/15 14:14:22;;;;;;;15.90;7.83;;;4.30;99.90;;;;;;4863579;29;20331;-72
2022/12/15 14:16:55;;;;;;;24.87;7.80;;;4.40;99.90;;;;;;4863670;29;20212;-74
2022/12/15 14:19:23;;;;;;;23.03;8.33;;;4.40;99.90;;;;;;4864488;29;20694;-76
2022/12/15 14:21:52;;;;;;;25.40;8.90;;;4.30;99.90;;;;;;4881681;29;20215;-73
2022/12/15 14:24:48;;;;;;;21.00;8.77;;;4.30;99.90;;;;;;4881975;29;20239;-72
2022/12/15 14:27:22;;;;;;;20.10;8.60;;;4.20;99.90;;;;;;4882014;29;20303;-71
2022/12/15 14:29:49;;;;;;;24.93;9.47;;;4.10;99.90;;;;;;4881933;29;20207;-72
2022/12/15 14:32:16;;;;;;;26.13;9.77;;;4.10;99.90;;;;;;4881758;29;20547;-72
2022/12/15 14:34:44;;;;;;;20.70;9.30;;;4.10;99.90;;;;;;4881621;29;20239;-72
2022/12/15 14:37:18;;;;;;;20.47;8.97;;;4.00;99.90;;;;;;4881689;29;20225;-73
2022/12/15 14:39:48;;;;;;;19.20;8.63;;;3.90;99.90;;;;;;4881812;29;20222;-73
2022/12/15 14:42:18;;;;;;;21.80;8.73;;;3.80;99.90;;;;;;4881685;29;20219;-73
2022/12/15 14:44:46;;;;;;;25.50;9.93;;;3.90;99.90;;;;;;4881499;29;20235;-73
2022/12/15 14:47:22;;;;;;;17.67;9.10;;;3.80;99.90;;;;;;4881305;29;20674;-73
2022/12/15 14:49:49;;;;;;;20.90;10.03;;;3.70;99.90;;;;;;4881278;29;20662;-73
2022/12/15 14:52:27;;;;;;;21.30;10.20;;;3.60;99.90;;;;;;4881188;29;20222;-73
2022/12/15 14:54:57;;;;;;;20.20;9.57;;;3.60;99.90;;;;;;4881086;29;20250;-72
2022/12/15 14:57:26;;;;;;;25.80;10.07;;;3.60;99.90;;;;;;4880501;29;20207;-73
2022/12/15 14:59:53;;;;;;;20.70;9.83;;;3.60;99.90;;;;;;4881462;29;20222;-73
2022/12/15 15:02:23;;;;;;;18.43;9.10;;;3.60;99.90;;;;;;4881337;29;20267;-73
2022/12/15 15:05:01;;;;;;;32.60;10.87;;;3.60;99.90;;;;;;4881373;29;20235;-73
2022/12/15 15:07:28;;;;;;;18.23;9.20;;;3.50;99.90;;;;;;4881352;29;20670;-73
2022/12/15 15:09:57;;;;;;;23.23;9.97;;;3.50;99.90;;;;;;4881084;29;20222;-73
2022/12/15 15:12:27;;;;;;;25.60;9.77;;;3.40;99.90;;;;;;4881335;29;20218;-73
2022/12/15 15:15:01;;;;;;;20.93;10.30;;;3.20;99.90;;;;;;4881263;29;20301;-73
2022/12/15 15:17:34;;;;;;;25.60;10.07;;;3.00;99.90;;;;;;4881229;29;20207;-73
2022/12/15 15:20:04;;;;;;;21.43;10.03;;;2.60;99.90;;;;;;4881286;29;20215;-76
2022/12/15 15:22:38;;;;;;;26.30;9.47;;;2.40;99.90;;;;;;4880995;29;20751;-73
2022/12/15 15:28:15;;;;;;;22.93;9.87;;;2.20;99.90;;;;;;5131596;27;21074;-71
2022/12/15 15:30:43;;;;;;;18.37;8.80;;;1.80;99.90;;;;;;5131331;28;20211;-71
2022/12/15 15:33:12;;;;;;;20.63;8.73;;;1.60;99.90;;;;;;5131474;28;20228;-71
2022/12/15 15:35:40;;;;;;;22.40;9.60;;;1.50;99.90;;;;;;5131528;27;20208;-72
2022/12/15 15:38:14;;;;;;;17.33;8.33;;;1.40;99.90;;;;;;5131350;27;20231;-71
2022/12/15 15:40:41;;;;;;;17.50;8.50;;;1.40;99.90;;;;;;5131207;27;20287;-72
2022/12/15 15:43:12;;;;;;;22.43;10.73;;;1.40;99.90;;;;;;5131240;27;20327;-71
2022/12/15 15:45:40;;;;;;;16.17;7.97;;;1.20;99.90;;;;;;5131075;27;20208;-70
2022/12/15 15:48:09;;;;;;;17.50;8.97;;;1.10;99.90;;;;;;5131128;27;20204;-72
2022/12/15 15:50:37;;;;;;;18.53;8.83;;;0.90;99.90;;;;;;5131040;27;20209;-72
2022/12/15 15:53:04;;;;;;;17.90;9.77;;;0.90;99.90;;;;;;5130727;27;20694;-72
2022/12/15 15:55:34;;;;;;;18.90;9.83;;;0.80;99.90;;;;;;5130449;27;20205;-71
2022/12/15 15:58:00;;;;;;;23.67;10.77;;;0.70;99.90;;;;;;5130919;27;20217;-71
2022/12/15 16:00:29;;;;;;;18.00;8.53;;;0.70;99.90;;;;;;5130710;27;20197;-71
2022/12/15 16:02:55;;;;;;;17.93;8.90;;;0.70;99.90;;;;;;5130819;27;20579;-70
2022/12/15 16:05:22;;;;;;;22.77;9.60;;;0.50;99.90;;;;;;5130872;27;20207;-71
2022/12/15 16:07:50;;;;;;;19.17;8.73;;;0.40;99.90;;;;;;5130379;27;20229;-71
2022/12/15 16:10:19;;;;;;;18.43;9.20;;;0.30;99.90;;;;;;5125075;27;20212;-70
2022/12/15 16:12:48;;;;;;;19.70;9.37;;;0.20;99.90;;;;;;5112799;28;20212;-70
2022/12/15 16:15:19;;;;;;;20.43;9.10;;;0.20;99.90;;;;;;5109361;28;20541;-70
2022/12/15 16:17:47;;;;;;;23.60;10.27;;;0.20;99.90;;;;;;5107865;28;20209;-70
2022/12/15 16:20:16;;;;;;;26.30;10.10;;;0.20;99.90;;;;;;5109944;28;20204;-72
2022/12/15 16:22:45;;;;;;;19.43;8.87;;;0.10;99.90;;;;;;5108356;28;20206;-72
2022/12/15 16:25:18;;;;;;;19.17;10.13;;;0.10;99.90;;;;;;5110096;28;20208;-72
2022/12/15 16:27:44;;;;;;;20.50;9.50;;;0.00;99.90;;;;;;5109605;28;20226;-72
2022/12/15 16:30:17;;;;;;;23.27;9.73;;;-0.10;99.90;;;;;;5110167;28;20202;-72
2022/12/15 16:32:44;;;;;;;20.77;9.23;;;-0.20;99.90;;;;;;5109710;28;20206;-72
2022/12/15 16:35:12;;;;;;;19.63;8.73;;;-0.20;99.90;;;;;;5109502;28;20664;-72
2022/12/15 16:37:45;;;;;;;25.23;10.77;;;-0.20;99.90;;;;;;5105696;28;20222;-72
2022/12/15 16:40:20;;;;;;;19.10;9.33;;;-0.30;99.90;;;;;;5096146;28;20198;-72
2022/12/15 16:42:53;;;;;;;25.43;11.23;;;-0.30;99.90;;;;;;5095879;28;20289;-72
2022/12/15 16:45:22;;;;;;;20.73;10.60;;;-0.30;99.90;;;;;;5096051;28;20202;-72
2022/12/15 16:47:49;;;;;;;21.97;10.13;;;-0.30;99.90;;;;;;5095960;28;20718;-72
2022/12/15 16:50:19;;;;;;;29.17;11.83;;;-0.30;99.90;;;;;;5096053;28;20224;-72
2022/12/15 16:52:49;;;;;;;17.97;9.77;;;-0.30;99.90;;;;;;5095862;28;20206;-72
2022/12/15 16:55:26;;;;;;;30.73;12.13;;;-0.30;99.90;;;;;;5095746;28;20224;-71
2022/12/15 16:57:55;;;;;;;23.83;10.77;;;-0.40;99.90;;;;;;5095607;28;20260;-71
2022/12/15 17:00:24;;;;;;;25.27;12.57;;;-0.40;99.90;;;;;;5095540;28;20209;-71
2022/12/15 17:02:52;;;;;;;29.47;11.37;;;-0.40;99.90;;;;;;5095547;28;20203;-71
2022/12/15 17:05:21;;;;;;;27.60;11.57;;;-0.40;99.90;;;;;;5095551;28;20206;-71
2022/12/15 17:07:52;;;;;;;31.33;12.70;;;-0.30;99.90;;;;;;5095171;28;20738;-71
2022/12/15 17:10:22;;;;;;;29.63;12.47;;;-0.40;99.90;;;;;;5094990;28;20203;-71
2022/12/15 17:12:49;;;;;;;25.70;12.77;;;-0.40;99.90;;;;;;5095122;28;20207;-71
2022/12/15 17:15:21;;;;;;;33.30;12.57;;;-0.50;99.90;;;;;;5095393;28;20203;-70
2022/12/15 17:17:49;;;;;;;28.83;12.50;;;-0.50;99.90;;;;;;5095062;28;20202;-71
2022/12/15 17:20:17;;;;;;;32.57;13.87;;;-0.50;99.90;;;;;;5095529;28;20206;-71
2022/12/15 17:22:48;;;;;;;34.90;14.43;;;-0.50;99.90;;;;;;5094922;28;20217;-71
2022/12/15 17:25:18;;;;;;;35.97;13.87;;;-0.40;99.90;;;;;;5094983;28;20213;-71
2022/12/15 17:27:46;;;;;;;24.83;12.70;;;-0.40;99.90;;;;;;5094790;28;20234;-71
2022/12/15 17:30:15;;;;;;;32.17;15.17;;;-0.30;99.90;;;;;;5095171;28;20221;-71
2022/12/15 17:32:42;;;;;;;33.77;15.97;;;-0.30;99.90;;;;;;5094920;28;20203;-72
2022/12/15 17:35:10;;;;;;;33.50;15.10;;;-0.10;99.90;;;;;;5095000;28;20209;-71
2022/12/15 17:37:37;;;;;;;28.70;13.97;;;0.10;99.90;;;;;;5094725;28;20202;-72
2022/12/15 17:40:15;;;;;;;35.07;15.00;;;0.20;99.90;;;;;;5095414;28;20198;-72
2022/12/15 17:42:42;;;;;;;34.50;15.20;;;0.20;99.90;;;;;;5094763;28;20205;-72
2022/12/15 17:45:14;;;;;;;22.50;13.10;;;0.20;99.90;;;;;;5094746;28;20195;-72
2022/12/15 17:47:41;;;;;;;27.03;14.03;;;0.30;99.90;;;;;;5094460;28;20226;-72
2022/12/15 17:50:09;;;;;;;35.77;14.97;;;0.30;99.90;;;;;;5093724;28;20553;-72
2022/12/15 17:52:36;;;;;;;28.73;15.07;;;0.30;99.90;;;;;;5094611;28;20289;-72
2022/12/15 17:55:17;;;;;;;38.40;15.23;;;0.40;99.90;;;;;;5094658;28;20213;-71
2022/12/15 17:57:43;;;;;;;26.30;13.50;;;0.40;99.90;;;;;;5094479;28;20198;-72
2022/12/15 18:00:16;;;;;;;28.97;13.63;;;0.50;99.90;;;;;;5094418;28;20213;-72
2022/12/15 18:02:43;;;;;;;34.17;14.20;;;0.50;99.90;;;;;;5094507;28;20542;-72
2022/12/15 18:05:10;;;;;;;34.13;13.87;;;0.60;99.90;;;;;;5094705;28;20233;-72
2022/12/15 18:07:37;;;;;;;33.63;13.47;;;0.60;99.90;;;;;;5094604;28;20303;-72
2022/12/15 18:10:04;;;;;;;32.70;14.83;;;0.60;99.90;;;;;;5094245;28;20290;-72
2022/12/15 18:12:34;;;;;;;28.67;14.03;;;0.70;99.90;;;;;;5093994;28;20209;-71
2022/12/15 18:15:00;;;;;;;31.10;11.53;;;0.70;99.90;;;;;;5093623;28;20546;-72
2022/12/15 18:17:27;;;;;;;30.87;12.90;;;0.30;99.90;;;;;;5093859;28;20209;-71
2022/12/15 18:19:54;;;;;;;24.83;13.53;;;0.10;99.90;;;;;;5094226;28;20203;-72
2022/12/15 18:22:23;;;;;;;21.53;12.13;;;0.20;99.90;;;;;;5094025;28;20203;-72
2022/12/15 18:24:51;;;;;;;31.07;11.67;;;0.20;99.90;;;;;;5093772;28;20222;-71
2022/12/15 18:27:22;;;;;;;26.53;12.83;;;0.10;99.90;;;;;;5093673;28;20226;-72
2022/12/15 18:29:50;;;;;;;26.00;10.47;;;0.00;99.90;;;;;;5093762;28;20213;-72
2022/12/15 18:32:18;;;;;;;27.73;11.47;;;0.00;99.90;;;;;;5093905;28;20293;-72
2022/12/15 18:34:45;;;;;;;25.97;11.90;;;0.00;99.90;;;;;;5093584;28;20223;-72
2022/12/15 18:37:15;;;;;;;23.70;10.97;;;-0.10;99.90;;;;;;5093469;28;20210;-72
2022/12/15 18:39:42;;;;;;;17.13;9.50;;;-0.10;99.90;;;;;;5093538;28;20210;-72
2022/12/15 18:42:14;;;;;;;21.00;10.50;;;-0.10;99.90;;;;;;5093408;28;20207;-71
2022/12/15 18:44:43;;;;;;;22.17;10.03;;;-0.20;99.90;;;;;;5093480;28;20230;-72
2022/12/15 18:47:16;;;;;;;21.27;9.93;;;-0.20;99.90;;;;;;5093445;28;20237;-72
2022/12/15 18:49:43;;;;;;;19.10;9.53;;;-0.30;99.90;;;;;;5093177;28;20194;-72
2022/12/15 18:52:16;;;;;;;34.57;10.67;;;-0.10;99.90;;;;;;5093276;28;20208;-72
2022/12/15 18:54:43;;;;;;;23.70;9.77;;;0.00;99.90;;;;;;5093066;28;20230;-72
2022/12/15 18:57:26;;;;;;;18.30;9.27;;;-0.10;99.90;;;;;;5093264;28;20210;-72
2022/12/15 18:59:56;;;;;;;18.20;8.83;;;-0.20;99.90;;;;;;5093205;28;20691;-72
2022/12/15 19:02:24;;;;;;;22.70;9.37;;;-0.30;99.90;;;;;;5092985;28;20210;-72
2022/12/15 19:04:51;;;;;;;19.53;9.07;;;-0.40;99.90;;;;;;5093042;28;20562;-72
2022/12/15 19:07:18;;;;;;;20.40;10.17;;;-0.40;99.90;;;;;;5092717;28;20744;-72
2022/12/15 19:09:45;;;;;;;20.23;10.40;;;-0.50;99.90;;;;;;5092623;28;20665;-71
2022/12/15 19:12:17;;;;;;;46.37;10.27;;;-0.40;99.90;;;;;;5092792;28;20213;-72
2022/12/15 19:14:45;;;;;;;20.13;11.17;;;-0.40;99.90;;;;;;5092436;28;20226;-72
2022/12/15 19:22:45;;;;;;;19.37;9.10;;;-0.60;99.90;;;;;;5092564;28;20263;-72
2022/12/15 19:25:16;;;;;;;21.43;10.80;;;-0.70;99.90;;;;;;5092783;28;20220;-71
2022/12/15 19:27:42;;;;;;;20.97;10.10;;;-0.70;99.90;;;;;;5092369;28;20222;-71
2022/12/15 19:30:15;;;;;;;21.40;8.90;;;-0.80;99.90;;;;;;5092706;28;20679;-72
2022/12/15 19:32:42;;;;;;;21.33;10.47;;;-0.80;99.90;;;;;;5093014;28;20202;-72
2022/12/15 19:35:12;;;;;;;18.03;8.90;;;-0.90;99.90;;;;;;5092679;28;20204;-72
2022/12/15 19:37:41;;;;;;;19.83;9.57;;;-1.00;99.90;;;;;;5092635;28;20232;-71
2022/12/15 19:40:16;;;;;;;27.63;9.70;;;-1.10;99.90;;;;;;5092487;28;20213;-72
2022/12/15 19:42:43;;;;;;;16.83;8.20;;;-1.20;99.90;;;;;;5091702;28;20206;-72
2022/12/15 19:45:15;;;;;;;24.43;9.43;;;-1.30;99.90;;;;;;5091879;28;20210;-72
2022/12/15 19:47:42;;;;;;;21.77;9.80;;;-1.30;99.90;;;;;;5091969;28;20249;-72
2022/12/15 19:50:14;;;;;;;18.47;8.83;;;-1.30;99.90;;;;;;5091950;28;20572;-71
2022/12/15 19:52:42;;;;;;;22.37;10.40;;;-1.40;99.90;;;;;;5092238;28;20572;-72
2022/12/15 19:55:15;;;;;;;23.00;9.40;;;-1.40;99.90;;;;;;5091920;28;20209;-72
2022/12/15 19:57:41;;;;;;;22.93;10.37;;;-1.40;99.90;;;;;;5091957;28;20206;-71
2022/12/15 20:00:15;;;;;;;18.57;8.90;;;-1.40;99.90;;;;;;5096241;28;20194;-71
2022/12/15 20:02:43;;;;;;;22.97;9.80;;;-1.40;99.90;;;;;;5098816;28;20198;-72
2022/12/15 20:05:11;;;;;;;24.17;10.30;;;-1.40;99.90;;;;;;5098750;28;20285;-71
2022/12/15 20:07:38;;;;;;;17.80;10.07;;;-1.40;99.90;;;;;;5098130;28;20230;-71
2022/12/15 20:10:11;;;;;;;18.93;9.50;;;-1.40;99.90;;;;;;5101568;28;20664;-72
2022/12/15 20:12:38;;;;;;;20.63;9.00;;;-1.50;99.90;;;;;;5101302;28;20191;-71
2022/12/15 20:15:14;;;;;;;18.83;9.50;;;-1.60;99.90;;;;;;5101861;28;20288;-72
2022/12/15 20:17:40;;;;;;;19.00;8.33;;;-1.60;99.90;;;;;;5099513;28;20206;-72
2022/12/15 20:20:12;;;;;;;32.70;11.07;;;-1.70;99.90;;;;;;5103162;28;20205;-72
2022/12/15 20:22:39;;;;;;;22.40;11.33;;;-1.60;99.90;;;;;;5105635;28;20209;-72
2022/12/15 20:25:07;;;;;;;21.33;9.77;;;-1.60;99.90;;;;;;5104218;28;20199;-72
2022/12/15 20:27:34;;;;;;;16.93;9.60;;;-1.60;99.90;;;;;;5103597;28;20274;-72
2022/12/15 20:30:00;;;;;;;27.40;11.33;;;-1.60;99.90;;;;;;5101714;28;20202;-72
2022/12/15 20:32:28;;;;;;;24.53;9.93;;;-1.60;99.90;;;;;;5104509;28;20203;-72
2022/12/15 20:34:54;;;;;;;24.50;10.40;;;-1.70;99.90;;;;;;5103789;28;20218;-72
2022/12/15 20:37:27;;;;;;;27.47;9.23;;;-1.80;99.90;;;;;;5101656;27;20198;-72
2022/12/15 20:39:54;;;;;;;21.93;9.83;;;-1.90;99.90;;;;;;5099958;28;20242;-72
2022/12/15 20:42:22;;;;;;;24.57;10.40;;;-1.90;99.90;;;;;;5104641;28;20660;-72
2022/12/15 20:44:49;;;;;;;25.17;10.23;;;-1.90;99.90;;;;;;5105651;28;20221;-72
2022/12/15 20:47:21;;;;;;;24.00;10.27;;;-1.80;99.90;;;;;;5102026;28;20251;-72
2022/12/15 20:49:48;;;;;;;20.43;10.37;;;-1.90;99.90;;;;;;5102682;28;20209;-72
2022/12/15 20:52:19;;;;;;;25.97;12.57;;;-1.90;99.90;;;;;;5106305;28;20205;-72
2022/12/15 20:54:48;;;;;;;23.57;10.83;;;-2.00;99.90;;;;;;5105278;28;20222;-72
2022/12/15 20:57:15;;;;;;;26.73;10.83;;;-2.10;99.90;;;;;;5102692;28;20208;-72
2022/12/15 20:59:43;;;;;;;32.73;11.50;;;-2.20;99.90;;;;;;5101872;28;20207;-72
2022/12/15 21:02:18;;;;;;;27.80;12.50;;;-2.20;99.90;;;;;;5102170;28;20677;-72
2022/12/15 21:04:46;;;;;;;25.00;11.63;;;-2.20;99.90;;;;;;5107066;28;20696;-72
2022/12/15 21:07:12;;;;;;;22.27;10.03;;;-2.10;99.90;;;;;;5104444;28;20208;-72
2022/12/15 21:09:40;;;;;;;19.33;10.70;;;-2.20;99.90;;;;;;5102854;28;20209;-72
2022/12/15 21:12:16;;;;;;;24.60;11.50;;;-2.30;99.90;;;;;;5101761;28;20561;-72
2022/12/15 21:14:43;;;;;;;21.10;10.23;;;-2.30;99.90;;;;;;5105425;28;20217;-72
2022/12/15 21:17:13;;;;;;;26.80;11.03;;;-2.40;99.90;;;;;;5105282;28;20210;-72
2022/12/15 21:19:40;;;;;;;20.47;9.47;;;-2.30;99.90;;;;;;5100969;28;20358;-72
2022/12/15 21:22:17;;;;;;;23.07;10.60;;;-2.40;99.90;;;;;;5101042;27;20202;-72
2022/12/15 21:24:44;;;;;;;21.67;11.10;;;-2.40;99.90;;;;;;5101913;28;20580;-72
2022/12/15 21:27:14;;;;;;;22.43;10.57;;;-2.40;99.90;;;;;;5099584;28;20209;-72
2022/12/15 21:29:41;;;;;;;26.00;10.83;;;-2.40;99.90;;;;;;5106645;28;20205;-72
2022/12/15 21:32:09;;;;;;;24.10;10.77;;;-2.40;99.90;;;;;;5104141;28;20194;-72
2022/12/15 21:34:36;;;;;;;22.20;11.80;;;-2.30;99.90;;;;;;5105702;28;20579;-72
2022/12/15 21:37:04;;;;;;;21.17;10.37;;;-2.30;99.90;;;;;;5101313;28;20667;-72
2022/12/15 21:39:34;;;;;;;37.47;10.90;;;-2.10;99.90;;;;;;5102138;28;20207;-72
2022/12/15 21:42:04;;;;;;;22.93;11.83;;;-2.10;99.90;;;;;;5106385;28;20222;-72
2022/12/15 21:44:32;;;;;;;14.77;9.13;;;-2.20;99.90;;;;;;5105444;28;20221;-72
2022/12/15 21:46:59;;;;;;;17.87;11.10;;;-2.20;99.90;;;;;;5103556;28;20209;-72
2022/12/15 21:49:25;;;;;;;24.87;10.10;;;-2.20;99.90;;;;;;5096677;28;20242;-72
2022/12/15 21:51:54;;;;;;;28.77;12.00;;;-2.30;99.90;;;;;;5107554;28;20765;-72
2022/12/15 21:54:23;;;;;;;21.97;10.60;;;-2.40;99.90;;;;;;5101838;28;20695;-72
2022/12/15 21:56:50;;;;;;;23.63;11.63;;;-2.40;99.90;;;;;;5098399;28;20221;-72
2022/12/15 21:59:19;;;;;;;19.67;9.37;;;-2.40;99.90;;;;;;5103233;28;20202;-71
2022/12/15 22:01:48;;;;;;;40.93;11.57;;;-2.50;99.90;;;;;;5101728;28;20205;-71
2022/12/15 22:04:19;;;;;;;22.10;9.97;;;-2.50;99.90;;;;;;5097253;28;20219;-71
2022/12/15 22:06:47;;;;;;;19.07;10.40;;;-2.50;99.90;;;;;;5099447;28;20615;-72
2022/12/15 22:09:14;;;;;;;24.33;9.50;;;-2.50;99.90;;;;;;5103880;28;20233;-71
2022/12/15 22:11:43;;;;;;;31.47;10.33;;;-2.70;99.90;;;;;;5100814;28;20677;-71
2022/12/15 22:14:19;;;;;;;30.83;8.63;;;-2.60;99.90;;;;;;5100626;28;20312;-72
